• Join FlightAware (Why Join?)
  • Login
  • US Flag 
11:03PM EDT


 

Airport Tracker/Info


-or-


 

Live Flight TrackerFlight Track Log ✈ SWA1524 ✈ 08-May-2013 ✈ KAUS - KLAX

Flight Track Log - Related Links

Times and Time Zones

All times are in EDT time to prevent confusion due to time zone crossing. See the SWA1524 flight status page for this flight to view local times or setup timezone preferences in your user account.

Time Position Orientation Groundspeed Altitude Reporting Facility
EDT Latitude Longitude Course Direction KTS MPH feet Rate Location/Type
06:42PM 30.2544 -97.8767 306° West 278 320 9,600  Level Houston Center
06:43PM 30.2722 -97.9767 282° West 295 339 11,500 1,920 Climbing Houston Center
06:44PM 30.4068 -97.8077 276° West  Level FlightAware Approximate
06:44PM 30.2939 -98.0861 283° West 341 392 13,600  Level Houston Center
06:45PM 30.4167 -97.9184 270° West  Level FlightAware Approximate
06:45PM 30.3194 -98.2033 284° West 367 422 16,300  Level Houston Center
06:46PM 30.4202 -98.0300 278° West  Level FlightAware Approximate
06:46PM 30.3483 -98.3264 285° West 386 444 17,500  Level Houston Center
06:47PM 30.3739 -98.4503 283° West 391 450 20,000 2,400 Climbing Houston Center
06:48PM 30.4011 -98.5778 284° West 401 461 22,600 2,460 Climbing Houston Center
06:49PM 30.4292 -98.7072 284° West 407 468 25,200 2,220 Climbing Houston Center
06:50PM 30.4575 -98.8347 284° West 406 467 27,300 2,400 Climbing Houston Center
06:51PM 30.4911 -98.9847 285° West 405 466 30,200 2,220 Climbing Houston Center
06:52PM 30.5158 -99.1083 283° West 394 453 32,000 1,740 Climbing Houston Center
06:53PM 30.5414 -99.2253 284° West 391 450 33,800 1,920 Climbing Houston Center
06:54PM 30.5658 -99.3403 284° West 375 432 36,000 1,020 Climbing Houston Center
06:55PM 30.5889 -99.4511 284° West 359 413 36,000  Level Houston Center
06:56PM 30.6169 -99.5842 284° West 356 410 36,000  Level Houston Center
06:57PM 30.6389 -99.6950 283° West 355 409 36,000  Level Houston Center
06:58PM 30.6625 -99.8056 284° West 355 409 36,000  Level Houston Center
06:59PM 30.6853 -99.9161 283° West 355 409 36,000  Level Houston Center
07:00PM 30.7069 -100.0253 283° West 351 404 36,000  Level Houston Center
07:01PM 30.7342 -100.1561 284° West 350 403 36,000  Level Houston Center
07:02PM 30.7561 -100.2658 283° West 350 403 36,000  Level Houston Center
07:03PM 30.7778 -100.3758 283° West 351 404 36,000  Level Houston Center
07:04PM 30.8000 -100.4836 284° West 349 402 36,000  Level Houston Center
07:05PM 30.8219 -100.5919 283° West 347 399 36,000  Level Houston Center
07:06PM 30.8467 -100.7244 282° West 350 403 36,000  Level Houston Center
07:08PM 30.8697 -100.8297 284° West 341 392 36,000  Level Houston Center
07:09PM 30.8900 -100.9381 282° West 342 394 36,000  Level Houston Center
07:10PM 30.9100 -101.0461 282° West 341 392 36,000  Level Houston Center
07:11PM 30.9317 -101.1522 283° West 339 390 36,000  Level Houston Center
07:12PM 30.9583 -101.2775 284° West 335 386 36,000  Level Houston Center
07:13PM 30.9789 -101.3889 282° West 341 392 36,000  Level Houston Center
07:14PM 30.9989 -101.5011 282° West 351 404 36,000  Level Houston Center
07:15PM 31.0153 -101.5872 283° West 348 400 36,000  Level Albuquerque Center
07:16PM 31.0356 -101.6978 282° West 348 400 36,000  Level Albuquerque Center
07:17PM 31.0600 -101.8267 283° West 343 395 36,000  Level Albuquerque Center
07:18PM 31.0800 -101.9375 282° West 344 396 36,000  Level Albuquerque Center
07:19PM 31.1011 -102.0481 283° West 348 400 36,000  Level Albuquerque Center
07:20PM 31.1200 -102.1553 282° West 341 392 36,000  Level Albuquerque Center
07:21PM 31.1411 -102.2633 283° West 341 392 36,000  Level Albuquerque Center
07:22PM 31.1603 -102.3719 282° West 342 394 36,000  Level Albuquerque Center
07:23PM 31.1808 -102.4792 283° West 339 390 36,000  Level Albuquerque Center
07:24PM 31.2003 -102.5908 282° West 336 387 36,000  Level Albuquerque Center
07:25PM 31.2197 -102.6983 282° West 336 387 36,000  Level Albuquerque Center
07:26PM 31.2394 -102.8069 282° West 340 391 36,000  Level Albuquerque Center
07:27PM 31.2589 -102.9142 282° West 339 390 36,000  Level Albuquerque Center
07:28PM 31.2814 -103.0428 282° West 338 389 36,000  Level Albuquerque Center
07:29PM 31.3011 -103.1489 282° West 337 388 36,000  Level Albuquerque Center
07:30PM 31.3192 -103.2556 281° West 336 387 36,000  Level Albuquerque Center
07:31PM 31.3375 -103.3617 281° West 334 384 36,000  Level Albuquerque Center
07:32PM 31.3564 -103.4678 282° West 333 383 36,000  Level Albuquerque Center
07:33PM 31.3736 -103.5747 281° West 334 384 36,000  Level Albuquerque Center
07:34PM 31.3925 -103.6803 282° West 332 382 36,000  Level Albuquerque Center
07:35PM 31.4111 -103.7919 281° West 333 383 36,000  Level Albuquerque Center
07:36PM 31.4311 -103.8997 282° West 338 389 36,000  Level Albuquerque Center
07:37PM 31.4533 -104.0294 281° West 340 391 36,000  Level Albuquerque Center
07:38PM 31.4708 -104.1378 281° West 339 390 36,000  Level Albuquerque Center
07:39PM 31.4892 -104.2464 281° West 341 392 36,000  Level Albuquerque Center
07:40PM 31.5083 -104.3556 282° West 343 395 36,000  Level Albuquerque Center
07:41PM 31.5258 -104.4631 281° West 339 390 36,000  Level Albuquerque Center
07:42PM 31.5453 -104.5703 282° West 338 389 36,000  Level Albuquerque Center
07:43PM 31.5622 -104.6781 280° West 338 389 36,000  Level Albuquerque Center
07:44PM 31.5836 -104.8072 281° West 338 389 36,000  Level Albuquerque Center
07:45PM 31.6006 -104.9144 281° West 337 388 36,000  Level Albuquerque Center
07:46PM 31.6264 -105.0183 286° West 334 384 36,000  Level Albuquerque Center
07:48PM 31.6556 -105.1242 288° West 340 391 36,000 60 Level Albuquerque Center
07:49PM 31.6839 -105.2311 287° West 343 395 36,200 780 Climbing Albuquerque Center
07:50PM 31.7125 -105.3381 287° West 345 397 37,700 1,740 Climbing Albuquerque Center
07:51PM 31.7422 -105.4569 286° West 317 365 39,800 1,080 Climbing Albuquerque Center
07:52PM 31.7700 -105.5528 289° West 311 358 40,000 60 Climbing Albuquerque Center
07:53PM 31.7953 -105.6519 287° West 316 364 40,000  Level Albuquerque Center
07:54PM 31.8208 -105.7486 287° West 311 358 40,000  Level Albuquerque Center
07:55PM 31.8461 -105.8472 287° West 316 364 40,000  Level Albuquerque Center
07:56PM 31.8731 -105.9472 288° West 320 368 40,000  Level Albuquerque Center
07:57PM 31.9025 -106.0594 287° West 325 374 40,000  Level Albuquerque Center
07:58PM 31.9294 -106.1586 288° West 319 367 40,000  Level Albuquerque Center
07:59PM 31.9550 -106.2594 287° West 321 369 40,000  Level Albuquerque Center
08:00PM 31.9808 -106.3572 287° West 314 361 40,000  Level Albuquerque Center
08:01PM 32.0064 -106.4578 287° West 320 368 40,000  Level Albuquerque Center
08:02PM 32.0378 -106.5786 287° West 321 369 40,000  Level Albuquerque Center
08:03PM 32.0636 -106.6781 287° West 319 367 40,000  Level Albuquerque Center
08:04PM 32.0892 -106.7767 287° West 315 362 40,000  Level Albuquerque Center
08:05PM 32.1139 -106.8756 286° West 315 362 40,000  Level Albuquerque Center
08:06PM 32.1392 -106.9756 287° West 317 365 40,000  Level Albuquerque Center
08:07PM 32.1644 -107.0761 287° West 318 366 40,000  Level Albuquerque Center
08:08PM 32.1931 -107.1856 287° West 322 371 40,000  Level Albuquerque Center
08:09PM 32.2128 -107.2889 283° West 331 381 40,000  Level Albuquerque Center
08:10PM 32.2381 -107.3914 286° West 331 381 40,000  Level Albuquerque Center
08:11PM 32.2697 -107.5144 287° West 329 379 40,000  Level Albuquerque Center
08:12PM 32.2972 -107.6167 288° West 328 377 40,000  Level Albuquerque Center
08:13PM 32.3225 -107.7222 286° West 331 381 40,000  Level Albuquerque Center
08:14PM 32.3472 -107.8275 286° West 332 382 40,000  Level Albuquerque Center
08:15PM 32.3728 -107.9333 286° West 334 384 40,000  Level Albuquerque Center
08:16PM 32.4000 -108.0397 287° West 337 388 40,000  Level Albuquerque Center
08:17PM 32.4258 -108.1464 286° West 338 389 40,000  Level Albuquerque Center
08:18PM 32.4539 -108.2664 286° West 336 387 40,000  Level Albuquerque Center
08:19PM 32.4806 -108.3736 286° West 340 391 40,000  Level Albuquerque Center
08:20PM 32.5053 -108.4822 285° West 344 396 40,000  Level Albuquerque Center
08:21PM 32.5311 -108.5919 286° West 346 398 40,000  Level Albuquerque Center
08:22PM 32.5575 -108.7022 286° West 348 400 40,000  Level Albuquerque Center
08:24PM 32.5889 -108.8336 286° West 347 399 40,000  Level Albuquerque Center
08:25PM 32.6139 -108.9417 285° West 343 395 40,000  Level Albuquerque Center
08:26PM 32.6386 -109.0500 285° West 341 392 40,000  Level Albuquerque Center
08:27PM 32.6639 -109.1597 285° West 344 396 40,000  Level Albuquerque Center
08:28PM 32.6894 -109.2711 285° West 348 400 40,000  Level Albuquerque Center
08:29PM 32.7158 -109.3808 286° West 348 400 40,000  Level Albuquerque Center
08:30PM 32.7408 -109.4931 285° West 351 404 40,000  Level Albuquerque Center
08:31PM 32.7719 -109.6261 286° West 351 404 40,000  Level Albuquerque Center
08:32PM 32.7967 -109.7378 285° West 351 404 40,000  Level Albuquerque Center
08:33PM 32.8222 -109.8506 285° West 354 407 40,000  Level Albuquerque Center
08:34PM 32.8475 -109.9656 285° West 359 413 40,000  Level Albuquerque Center
08:35PM 32.8783 -110.0831 287° West 372 428 40,000  Level Albuquerque Center
08:36PM 32.9022 -110.1983 284° West 366 421 40,000  Level Albuquerque Center
08:37PM 32.9425 -110.3358 289° West 368 423 40,000  Level Albuquerque Center
08:38PM 32.9753 -110.4486 289° West 365 420 40,000  Level Albuquerque Center
08:39PM 33.0092 -110.5617 290° West 365 420 40,000  Level Albuquerque Center
08:40PM 33.0431 -110.6861 288° West 366 421 40,000  Level Albuquerque Center
08:41PM 33.0767 -110.8017 289° West 368 423 40,000  Level Albuquerque Center
08:42PM 33.1103 -110.9178 289° West 370 426 40,000  Level Albuquerque Center
08:43PM 33.1422 -111.0342 288° West 370 426 40,000  Level Albuquerque Center
08:44PM 33.1747 -111.1508 288° West 371 427 40,000  Level Albuquerque Center
08:45PM 33.2081 -111.2683 289° West 373 429 40,000  Level Albuquerque Center
08:46PM 33.2408 -111.3878 288° West 376 433 40,000  Level Albuquerque Center
08:47PM 33.2811 -111.5339 288° West 383 441 40,000  Level Albuquerque Center
08:48PM 33.3142 -111.6578 288° West 388 447 40,000  Level Albuquerque Center
08:49PM 33.3500 -111.7822 289° West 392 451 40,000  Level Albuquerque Center
08:50PM 33.3831 -111.9069 288° West 394 453 40,000  Level Albuquerque Center
08:51PM 33.4167 -112.0311 288° West 392 451 40,000  Level Albuquerque Center
08:52PM 33.4506 -112.1542 288° West 389 448 40,000  Level Albuquerque Center
08:53PM 33.4836 -112.2792 288° West 391 450 40,000  Level Albuquerque Center
08:54PM 33.5167 -112.4050 288° West 394 453 40,000  Level Albuquerque Center
08:55PM 33.5572 -112.5578 288° West 398 458 40,000  Level Albuquerque Center
08:56PM 33.5925 -112.6889 288° West 399 459 40,000  Level Albuquerque Center
08:57PM 33.6267 -112.8161 288° West 401 461 40,000  Level Albuquerque Center
08:58PM 33.6589 -112.9414 287° West 403 464 40,000  Level Albuquerque Center
08:59PM 33.6922 -113.0681 288° West 399 459 40,000  Level Albuquerque Center
09:01PM 33.7261 -113.1964 288° West 401 461 40,000  Level Albuquerque Center
09:02PM 33.7572 -113.3244 286° West 401 461 40,000  Level Albuquerque Center
09:03PM 33.7897 -113.4539 287° West 403 464 40,000  Level Albuquerque Center
09:04PM 33.8297 -113.6106 287° West 406 467 40,000  Level Albuquerque Center
09:05PM 33.8636 -113.7406 287° West 407 468 40,000  Level Albuquerque Center
09:06PM 33.8967 -113.8711 287° West 408 470 40,000  Level Albuquerque Center
09:07PM 33.9286 -114.0014 286° West 407 468 40,000  Level Albuquerque Center
09:08PM 33.9658 -114.1303 289° West 406 467 40,000  Level Albuquerque Center
09:09PM 33.9964 -114.2597 286° West 406 467 40,000  Level Albuquerque Center
09:10PM 34.0286 -114.3886 287° West 405 466 40,000  Level Albuquerque Center
09:11PM 34.0578 -114.5008 287° West 405 466 40,000 -120 Level Los Angeles Center
09:12PM 34.0961 -114.6578 286° West 407 468 39,800 -780 Descending Los Angeles Center
09:14PM 34.1053 -114.9542 272° West 404 465 37,700 -1,020 Descending Los Angeles Center
09:15PM 34.1067 -115.0897 271° West 405 466 36,800 -840 Descending Los Angeles Center
09:16PM 34.1092 -115.2269 271° West 409 471 36,000 -420 Descending Los Angeles Center
09:17PM 34.1097 -115.3644 270° West 412 474 36,000  Level Los Angeles Center
09:18PM 34.1111 -115.5003 271° West 408 470 36,000 -120 Level Los Angeles Center
09:19PM 34.1117 -115.6650 270° West 410 472 35,800 -540 Descending Los Angeles Center
09:20PM 34.1086 -115.8019 268° West 410 472 34,800 -1,080 Descending Los Angeles Center
09:21PM 34.0833 -115.9633 259° West 411 473 33,700 -1,080 Descending Los Angeles Center
09:22PM 34.0633 -116.0992 260° West 412 474 32,700 -1,020 Descending Los Angeles Center
09:23PM 34.0428 -116.2344 260° West 413 475 31,700 -1,440 Descending Los Angeles Center
09:24PM 34.0228 -116.3664 260° West 404 465 29,800 -2,040 Descending Los Angeles Center
09:25PM 34.0047 -116.4908 260° West 385 443 27,600 -2,100 Descending Los Angeles Center
09:26PM 33.9950 -116.6144 265° West 375 432 25,500 -2,100 Descending Los Angeles Center
09:27PM 33.9856 -116.7392 265° West 375 432 23,300 -2,280 Descending Los Angeles Center
09:28PM 33.9736 -116.8822 264° West 361 415 20,900 -2,220 Descending Los Angeles Center
09:29PM 33.9667 -116.9500 263° West 348 400 19,800 -1,920 Descending Southern California TRACON
09:30PM 33.9500 -117.0667 260° West 364 419 18,000 -1,440 Descending Southern California TRACON
09:31PM 33.9500 -117.2000 270° West 353 406 17,000 -1,020 Descending Southern California TRACON
09:32PM 33.9333 -117.3167 260° West 343 395 15,900 -1,740 Descending Southern California TRACON
09:33PM 33.9500 -117.4333 280° West 344 396 13,400 -2,160 Descending Southern California TRACON
09:34PM 33.9833 -117.5333 292° West 327 376 11,400 -1,800 Descending Southern California TRACON
09:35PM 34.0167 -117.6167 296° West 320 368 10,000 -960 Descending Southern California TRACON
09:36PM 34.0167 -117.7333 270° West 291 335 9,500 -900 Descending Southern California TRACON
09:37PM 34.0167 -117.8333 270° West 296 341 8,200 -1,320 Descending Southern California TRACON
09:38PM 34.0000 -117.9167 256° West 283 326 6,900 -1,620 Descending Southern California TRACON
09:39PM 34.0000 -118.0000 270° West 271 312 5,200 -1,560 Descending Southern California TRACON
09:40PM 33.9833 -118.0833 256° West 254 292 4,000 -840 Descending Southern California TRACON
09:41PM 33.9800 -118.1325 265° West 249 287 3,800 -600 Descending Los Angeles Center
09:42PM 33.9717 -118.2194 263° West 224 258 3,000 -900 Descending Los Angeles Center
09:43PM 33.9644 -118.2864 263° West 214 246 2,000 -840 Descending Los Angeles Center
09:44PM 33.9592 -118.3347 263° West 172 198 1,300 -720 Descending Los Angeles Center
09:45PM 33.9561 -118.3764 265° West 145 167 600 -600 Descending Los Angeles Center
09:46PM 33.9500 -118.4228 261° West 136 157 100 -540 Descending Los Angeles Center
09:48PM 33.9425 -118.4081 140° Southeast  Level Estimated